Time;durP1;ratioP1;P1;durP2;ratioP2;P2;SDS_P1;SDS_P2;PMS_P1;PMS_P2;Temp;Humidity;BMP_temperature;BMP_pressure;BME280_temperature;BME280_humidity;BME280_pressure;Samples;Min_cycle;Max_cycle;Signal;HPM_P1;HPM_P2
2023/09/10 00:00:35;;;;;;;750.22;697.08;;;16.50;99.90;;;;;;5094124;28;20036;-83
2023/09/10 00:03:01;;;;;;;750.75;697.00;;;16.50;99.90;;;;;;5095159;28;20048;-83
2023/09/10 00:05:27;;;;;;;736.97;683.90;;;16.50;99.90;;;;;;5093748;28;20036;-83
2023/09/10 00:07:53;;;;;;;431.63;402.05;;;16.50;99.90;;;;;;5094898;28;20171;-83
2023/09/10 00:10:18;;;;;;;754.20;701.50;;;16.50;99.90;;;;;;5093736;28;20067;-83
2023/09/10 00:12:44;;;;;;;442.73;414.15;;;16.50;99.90;;;;;;5094029;28;20557;-84
2023/09/10 00:15:10;;;;;;;752.00;698.72;;;16.50;99.90;;;;;;5093648;28;20047;-83
2023/09/10 00:17:36;;;;;;;416.13;387.17;;;16.50;99.90;;;;;;5093577;28;20051;-83
2023/09/10 00:20:02;;;;;;;457.20;425.10;;;16.50;99.90;;;;;;5093446;28;20195;-84
2023/09/10 00:22:28;;;;;;;744.80;691.45;;;16.40;99.90;;;;;;5093912;28;20135;-83
2023/09/10 00:24:53;;;;;;;459.20;426.38;;;16.40;99.90;;;;;;5095018;28;20079;-83
2023/09/10 00:27:19;;;;;;;752.88;698.45;;;16.40;99.90;;;;;;5094080;28;20087;-84
2023/09/10 00:29:45;;;;;;;755.95;702.33;;;16.30;99.90;;;;;;5094914;28;20040;-83
2023/09/10 00:32:11;;;;;;;417.30;386.42;;;16.30;99.90;;;;;;5093078;28;20061;-84
2023/09/10 00:34:36;;;;;;;759.03;703.28;;;16.30;99.90;;;;;;5094330;28;20115;-84
2023/09/10 00:37:02;;;;;;;757.00;701.35;;;16.20;99.90;;;;;;5093475;28;20183;-84
2023/09/10 00:39:28;;;;;;;755.63;700.78;;;16.20;99.90;;;;;;5094609;28;20496;-83
2023/09/10 00:41:54;;;;;;;739.97;686.15;;;16.10;99.90;;;;;;5110352;28;20388;-84
2023/09/10 00:44:20;;;;;;;753.35;698.80;;;16.20;99.90;;;;;;5114725;28;20048;-83
2023/09/10 00:46:47;;;;;;;751.55;696.97;;;16.20;99.90;;;;;;5114599;28;20054;-83
2023/09/10 00:49:13;;;;;;;752.67;697.22;;;16.20;99.90;;;;;;5098115;28;20055;-83
2023/09/10 00:51:41;;;;;;;438.08;400.20;;;16.20;99.90;;;;;;5092533;28;20040;-83
2023/09/10 00:54:07;;;;;;;752.08;697.25;;;16.20;99.90;;;;;;5094115;28;20084;-83
2023/09/10 00:56:33;;;;;;;402.90;375.15;;;16.20;99.90;;;;;;5108173;28;20074;-83
2023/09/10 00:58:59;;;;;;;726.15;674.55;;;16.10;99.90;;;;;;5114544;28;20049;-84
2023/09/10 01:01:26;;;;;;;744.55;691.72;;;16.10;99.90;;;;;;5112716;28;20472;-83
2023/09/10 01:03:51;;;;;;;728.65;677.40;;;16.10;99.90;;;;;;5112261;28;20051;-84
2023/09/10 01:06:18;;;;;;;721.75;670.33;;;16.10;99.90;;;;;;5114202;28;20415;-83
2023/09/10 01:08:43;;;;;;;400.58;373.17;;;16.10;99.90;;;;;;5113348;28;20377;-83
2023/09/10 01:11:33;;;;;;;743.95;691.42;;;16.10;99.90;;;;;;5113055;28;20097;-83
2023/09/10 01:14:12;;;;;;;719.13;667.30;;;16.10;99.90;;;;;;5107054;28;20044;-83
2023/09/10 01:16:55;;;;;;;402.55;374.10;;;16.10;99.90;;;;;;5092489;28;20109;-83
2023/09/10 01:19:33;;;;;;;738.50;685.30;;;16.10;99.90;;;;;;5090558;28;20047;-83
2023/09/10 01:22:51;;;;;;;418.92;387.08;;;16.00;99.90;;;;;;5091777;28;20044;-83
2023/09/10 01:25:19;;;;;;;732.20;677.15;;;16.00;99.90;;;;;;5009562;28;20506;-83
2023/09/10 01:27:46;;;;;;;725.50;671.95;;;16.00;99.90;;;;;;5023589;28;20080;-84
2023/09/10 01:30:12;;;;;;;745.00;690.22;;;16.00;99.90;;;;;;5031087;28;20049;-83
2023/09/10 01:32:47;;;;;;;409.88;378.75;;;16.00;99.90;;;;;;5014775;28;20045;-83
2023/09/10 01:35:17;;;;;;;735.20;681.20;;;15.90;99.90;;;;;;5022806;28;20120;-83
2023/09/10 01:37:57;;;;;;;750.15;694.60;;;15.90;99.90;;;;;;5031290;28;20077;-83
2023/09/10 01:40:30;;;;;;;754.63;697.33;;;15.80;99.90;;;;;;5014810;28;20060;-83
2023/09/10 01:42:56;;;;;;;745.38;688.85;;;15.70;99.90;;;;;;5014378;28;20061;-84
2023/09/10 01:45:23;;;;;;;432.55;396.77;;;15.70;99.90;;;;;;5030919;28;20045;-83
2023/09/10 01:47:49;;;;;;;754.50;696.65;;;15.70;99.90;;;;;;5014542;28;20120;-83
2023/09/10 01:50:16;;;;;;;431.55;394.92;;;15.60;99.90;;;;;;4997933;28;20046;-83
2023/09/10 01:52:42;;;;;;;431.67;394.95;;;15.60;99.90;;;;;;5014472;28;20049;-84
2023/09/10 01:55:08;;;;;;;437.17;398.05;;;15.60;99.90;;;;;;5013378;28;20116;-83
2023/09/10 01:57:34;;;;;;;755.80;695.42;;;15.60;99.90;;;;;;5014261;28;20498;-83
2023/09/10 02:00:00;;;;;;;741.47;681.58;;;15.60;99.90;;;;;;5030853;28;20056;-83
2023/09/10 02:02:26;;;;;;;755.17;693.40;;;15.60;99.90;;;;;;5071686;28;20048;-84
2023/09/10 02:04:51;;;;;;;463.27;417.75;;;15.70;99.90;;;;;;5092962;28;20093;-84
2023/09/10 02:07:17;;;;;;;452.60;408.52;;;15.70;99.90;;;;;;5091936;28;20504;-83
2023/09/10 02:09:43;;;;;;;754.45;692.25;;;15.70;99.90;;;;;;5111348;28;20063;-83
2023/09/10 02:12:09;;;;;;;460.48;416.65;;;15.70;99.90;;;;;;5111786;28;20043;-83
2023/09/10 02:14:36;;;;;;;454.17;410.63;;;15.70;99.90;;;;;;5105302;28;20040;-83
2023/09/10 02:17:02;;;;;;;453.02;408.60;;;15.70;99.90;;;;;;5102882;28;20047;-83
2023/09/10 02:19:28;;;;;;;753.00;690.60;;;15.70;99.90;;;;;;5113401;28;20425;-84
2023/09/10 02:21:57;;;;;;;483.77;424.02;;;15.70;99.90;;;;;;5112244;28;20127;-84
2023/09/10 02:24:23;;;;;;;451.02;407.05;;;15.80;99.90;;;;;;5113180;28;20078;-83
2023/09/10 02:26:48;;;;;;;451.15;407.85;;;15.80;99.90;;;;;;5098881;28;20088;-84
2023/09/10 02:29:14;;;;;;;459.38;414.95;;;15.70;99.90;;;;;;5091483;28;20039;-83
2023/09/10 02:31:40;;;;;;;747.80;685.38;;;15.80;99.90;;;;;;5098532;28;20044;-83
2023/09/10 02:34:05;;;;;;;745.28;683.55;;;15.70;99.90;;;;;;5106653;28;20046;-83
2023/09/10 02:36:31;;;;;;;452.58;407.77;;;15.60;99.90;;;;;;5092735;28;20044;-83
2023/09/10 02:38:57;;;;;;;458.20;413.02;;;15.60;99.90;;;;;;5092926;28;20507;-83
2023/09/10 02:41:23;;;;;;;739.85;675.67;;;15.70;99.90;;;;;;5091432;28;20048;-83
2023/09/10 02:43:51;;;;;;;764.58;693.40;;;15.50;99.90;;;;;;5103579;28;20516;-83
2023/09/10 02:46:17;;;;;;;748.80;678.88;;;15.50;99.90;;;;;;5103558;28;20052;-83
2023/09/10 02:48:43;;;;;;;474.58;418.85;;;15.50;99.90;;;;;;5092378;28;20051;-83
2023/09/10 02:51:08;;;;;;;470.05;421.60;;;15.50;99.90;;;;;;5091353;28;20051;-83
2023/09/10 02:53:34;;;;;;;741.65;677.83;;;15.50;99.90;;;;;;5093633;28;20040;-83
2023/09/10 02:56:03;;;;;;;756.60;691.28;;;15.50;99.90;;;;;;5111615;28;20108;-83
2023/09/10 02:58:30;;;;;;;526.88;440.27;;;15.40;99.90;;;;;;5112858;28;20551;-84
2023/09/10 03:01:01;;;;;;;762.65;696.17;;;15.50;99.90;;;;;;5112795;28;20057;-83
2023/09/10 03:03:27;;;;;;;476.02;424.58;;;15.40;99.90;;;;;;5110281;28;20047;-83
2023/09/10 03:05:53;;;;;;;762.08;692.83;;;15.40;99.90;;;;;;5090634;28;20046;-84
2023/09/10 03:08:19;;;;;;;750.67;682.17;;;15.40;99.90;;;;;;5097262;28;20480;-83
2023/09/10 03:10:44;;;;;;;486.95;429.85;;;15.40;99.90;;;;;;5092194;28;20036;-83
2023/09/10 03:13:10;;;;;;;490.25;425.80;;;15.40;99.90;;;;;;5092026;28;20127;-83
2023/09/10 03:15:36;;;;;;;495.13;433.90;;;15.40;99.90;;;;;;5094556;28;20054;-83
2023/09/10 03:18:02;;;;;;;763.33;692.70;;;15.40;99.90;;;;;;5106113;28;20036;-83
2023/09/10 03:20:28;;;;;;;762.25;690.85;;;15.30;99.90;;;;;;5115161;28;20067;-83
2023/09/10 03:22:58;;;;;;;496.25;427.58;;;15.30;99.90;;;;;;5097903;28;20039;-83
2023/09/10 03:25:24;;;;;;;516.60;430.10;;;15.30;99.90;;;;;;5097936;27;20048;-83
2023/09/10 03:27:50;;;;;;;534.55;434.55;;;15.30;99.90;;;;;;5094523;28;20072;-83
2023/09/10 03:30:19;;;;;;;521.17;431.77;;;15.30;99.90;;;;;;5094233;28;20191;-84
2023/09/10 03:32:48;;;;;;;522.53;436.30;;;15.30;99.90;;;;;;5103740;28;20035;-83
2023/09/10 03:35:14;;;;;;;750.92;676.78;;;15.20;99.90;;;;;;5114906;28;20059;-83
2023/09/10 03:37:42;;;;;;;752.58;678.90;;;15.20;99.90;;;;;;5114674;28;20039;-83
2023/09/10 03:40:08;;;;;;;755.65;679.72;;;15.20;99.90;;;;;;5114746;28;20503;-83
2023/09/10 03:42:34;;;;;;;512.67;432.48;;;15.20;99.90;;;;;;5116122;28;20043;-83
2023/09/10 03:45:00;;;;;;;751.45;671.10;;;15.20;99.90;;;;;;5115874;28;20408;-83
2023/09/10 03:47:29;;;;;;;743.38;671.45;;;15.20;99.90;;;;;;5102998;28;20399;-84
2023/09/10 03:49:55;;;;;;;527.92;434.65;;;15.20;99.90;;;;;;5095587;28;20472;-83
2023/09/10 03:52:21;;;;;;;533.47;437.50;;;15.20;99.90;;;;;;5095650;28;20044;-84
2023/09/10 03:54:47;;;;;;;753.10;678.13;;;15.10;99.90;;;;;;5077347;28;20044;-84
2023/09/10 03:57:14;;;;;;;543.80;438.92;;;15.10;99.90;;;;;;5077467;28;20079;-84
2023/09/10 03:59:40;;;;;;;546.92;438.67;;;15.10;99.90;;;;;;5094704;28;20044;-83
2023/09/10 04:02:06;;;;;;;567.03;447.92;;;15.00;99.90;;;;;;5095301;28;20044;-83
2023/09/10 04:04:33;;;;;;;565.28;441.30;;;15.00;99.90;;;;;;5095240;28;20044;-83
2023/09/10 04:06:59;;;;;;;759.47;681.65;;;14.90;99.90;;;;;;5104257;28;20074;-83
2023/09/10 04:09:25;;;;;;;566.35;442.60;;;14.90;99.90;;;;;;5094267;28;20489;-83
2023/09/10 04:11:51;;;;;;;575.65;445.38;;;14.90;99.90;;;;;;5093681;28;20393;-83
2023/09/10 04:14:17;;;;;;;589.00;444.48;;;14.80;99.90;;;;;;5098198;28;20092;-83
2023/09/10 04:16:46;;;;;;;759.97;677.40;;;14.90;99.90;;;;;;5115438;28;20040;-83
2023/09/10 04:19:12;;;;;;;766.67;683.88;;;14.90;99.90;;;;;;5115497;28;20484;-83
2023/09/10 04:21:37;;;;;;;643.50;454.13;;;14.90;99.90;;;;;;5113619;28;20131;-83
2023/09/10 04:24:05;;;;;;;626.78;456.95;;;14.90;99.90;;;;;;5096728;28;20040;-83
2023/09/10 04:26:31;;;;;;;629.08;450.33;;;14.90;99.90;;;;;;5109303;28;20065;-84
2023/09/10 04:28:57;;;;;;;642.45;452.05;;;14.90;99.90;;;;;;5093474;28;20180;-83
2023/09/10 04:31:22;;;;;;;641.05;449.73;;;14.90;99.90;;;;;;5094311;28;20566;-83
2023/09/10 04:33:48;;;;;;;638.20;454.75;;;14.90;99.90;;;;;;5094703;28;20040;-83
2023/09/10 04:36:14;;;;;;;773.80;687.95;;;14.90;99.90;;;;;;5093564;28;20048;-83
2023/09/10 04:38:40;;;;;;;626.78;454.13;;;14.90;99.90;;;;;;5076624;28;20476;-83
2023/09/10 04:41:06;;;;;;;632.63;452.40;;;14.90;99.90;;;;;;5094066;28;20044;-84
2023/09/10 04:43:32;;;;;;;800.92;680.13;;;14.90;99.90;;;;;;5111082;28;20036;-83
2023/09/10 04:45:58;;;;;;;643.65;448.52;;;15.00;99.90;;;;;;5109379;28;20107;-83
2023/09/10 04:48:24;;;;;;;706.70;457.58;;;14.90;99.90;;;;;;5093410;28;20039;-84
2023/09/10 04:50:50;;;;;;;730.13;461.20;;;15.00;99.90;;;;;;5075985;28;20048;-83
2023/09/10 04:53:16;;;;;;;755.90;468.85;;;15.00;99.90;;;;;;5092964;28;20126;-88
2023/09/10 04:55:42;;;;;;;900.70;673.17;;;15.00;99.90;;;;;;5104136;28;20032;-83
2023/09/10 04:58:10;;;;;;;828.85;675.13;;;15.00;99.90;;;;;;5094588;28;20054;-84
2023/09/10 05:00:40;;;;;;;658.28;457.02;;;15.00;99.90;;;;;;5092776;28;20047;-85
2023/09/10 05:03:05;;;;;;;668.15;459.77;;;14.90;99.90;;;;;;5093084;28;20428;-85
2023/09/10 05:05:31;;;;;;;670.38;455.33;;;14.90;99.90;;;;;;5093830;28;20047;-85
2023/09/10 05:07:57;;;;;;;796.20;669.47;;;14.90;99.90;;;;;;5094223;28;20055;-84
2023/09/10 05:10:22;;;;;;;800.22;674.10;;;14.80;99.90;;;;;;5075945;28;20044;-86
2023/09/10 05:12:51;;;;;;;649.20;453.40;;;14.80;99.90;;;;;;5107942;28;20544;-86
2023/09/10 05:15:17;;;;;;;795.50;671.78;;;14.70;99.90;;;;;;5112948;28;20095;-87
2023/09/10 05:17:43;;;;;;;666.13;455.67;;;14.70;99.90;;;;;;5095288;28;20126;-83
2023/09/10 05:20:09;;;;;;;883.25;669.13;;;14.60;99.90;;;;;;5092627;28;20507;-85
2023/09/10 05:22:37;;;;;;;671.05;455.40;;;14.60;99.90;;;;;;5092431;28;20036;-85
2023/09/10 05:25:03;;;;;;;718.60;461.33;;;14.60;99.90;;;;;;5092632;28;20056;-86
2023/09/10 05:27:29;;;;;;;915.80;665.28;;;14.60;99.90;;;;;;5093383;28;20058;-85
2023/09/10 05:29:54;;;;;;;858.38;480.13;;;14.50;99.90;;;;;;5092512;28;20044;-85
2023/09/10 05:32:20;;;;;;;1020.60;657.95;;;14.60;99.90;;;;;;5093220;28;20081;-86
2023/09/10 05:34:46;;;;;;;894.17;483.92;;;14.60;99.90;;;;;;5092263;28;20044;-84
2023/09/10 05:37:12;;;;;;;1039.28;663.00;;;14.60;99.90;;;;;;5079312;28;20084;-85
2023/09/10 05:39:37;;;;;;;905.08;478.50;;;14.60;99.90;;;;;;5092107;28;20127;-84
2023/09/10 05:42:03;;;;;;;1039.72;646.25;;;14.70;99.90;;;;;;5092015;28;20373;-85
2023/09/10 05:44:29;;;;;;;911.17;485.20;;;14.70;99.90;;;;;;5092756;28;20491;-85
2023/09/10 05:46:55;;;;;;;1041.90;652.97;;;14.70;99.90;;;;;;5094600;28;20055;-83
2023/09/10 05:49:21;;;;;;;1023.42;660.47;;;14.80;99.90;;;;;;5081774;28;20035;-85
2023/09/10 05:51:46;;;;;;;1018.80;660.45;;;14.90;99.90;;;;;;5112039;28;20044;-86
2023/09/10 05:54:12;;;;;;;892.95;487.23;;;14.90;99.90;;;;;;5112420;28;20050;-84
2023/09/10 05:56:38;;;;;;;890.00;488.40;;;14.80;99.90;;;;;;5094954;28;20052;-84
2023/09/10 05:59:05;;;;;;;893.38;482.00;;;14.90;99.90;;;;;;5095195;28;20186;-86
2023/09/10 06:01:31;;;;;;;901.58;492.45;;;14.90;99.90;;;;;;5091732;28;20093;-84
2023/09/10 06:03:59;;;;;;;898.03;483.65;;;14.90;99.90;;;;;;5091865;28;20036;-87
2023/09/10 06:06:25;;;;;;;1053.75;673.22;;;15.00;99.90;;;;;;5091005;28;20067;-84
2023/09/10 06:08:50;;;;;;;1040.00;668.28;;;15.00;99.90;;;;;;5093122;28;20040;-85
2023/09/10 06:11:16;;;;;;;951.95;664.35;;;15.10;99.90;;;;;;5112500;28;20043;-84
2023/09/10 06:13:42;;;;;;;828.72;477.60;;;15.20;99.90;;;;;;5112103;28;20055;-85
2023/09/10 06:16:08;;;;;;;968.05;670.85;;;15.30;99.90;;;;;;5113224;28;20039;-86
2023/09/10 06:18:33;;;;;;;890.35;485.10;;;15.30;99.90;;;;;;5109800;28;20044;-88
2023/09/10 06:21:02;;;;;;;917.67;489.25;;;15.40;99.90;;;;;;5091587;28;20488;-85
2023/09/10 06:27:30;;;;;;;1026.25;670.08;;;15.50;99.90;;;;;;5051078;28;20060;-90
2023/09/10 07:04:55;;;;;;;740.55;478.33;;;17.00;99.90;;;;;;4997368;28;20050;-87
2023/09/10 07:07:21;;;;;;;835.92;494.33;;;17.20;99.90;;;;;;4972231;28;20114;-91
2023/09/10 07:11:05;;;;;;;964.22;716.80;;;17.30;99.90;;;;;;4978715;28;20050;-91
2023/09/10 07:16:09;;;;;;;719.20;484.77;;;17.80;99.90;;;;;;1331970;26;20575;-84
2023/09/10 07:18:35;;;;;;;858.28;730.88;;;17.90;99.90;;;;;;4959298;29;20059;-88
2023/09/10 07:21:01;;;;;;;725.15;506.20;;;18.00;99.90;;;;;;4941581;29;20242;-91
2023/09/10 07:23:27;;;;;;;739.72;494.98;;;18.20;99.90;;;;;;4940871;29;20412;-85
2023/09/10 07:25:54;;;;;;;845.03;755.13;;;18.30;99.90;;;;;;4939930;29;20044;-88
2023/09/10 07:28:20;;;;;;;884.25;765.25;;;18.50;99.90;;;;;;4924743;29;20054;-87
2023/09/10 07:30:45;;;;;;;849.17;756.45;;;18.70;99.90;;;;;;4924226;29;20365;-87
2023/09/10 07:33:11;;;;;;;706.78;520.13;;;18.80;99.90;;;;;;4957347;28;20535;-86
2023/09/10 07:35:37;;;;;;;650.33;519.25;;;19.00;99.90;;;;;;4940509;29;20083;-89
2023/09/10 07:38:03;;;;;;;652.80;528.38;;;19.10;99.90;;;;;;4923936;29;20043;-85
2023/09/10 07:40:28;;;;;;;673.72;527.55;;;19.30;99.90;;;;;;4957474;29;20397;-86
2023/09/10 07:42:55;;;;;;;877.28;783.58;;;19.40;99.90;;;;;;4924803;29;20039;-88
2023/09/10 07:45:21;;;;;;;880.03;788.92;;;19.60;99.90;;;;;;4957472;29;20138;-88
2023/09/10 07:47:47;;;;;;;728.83;542.72;;;19.70;99.90;;;;;;4956956;29;20118;-87
2023/09/10 07:50:13;;;;;;;657.42;537.28;;;19.90;99.90;;;;;;4957062;29;20043;-87
2023/09/10 07:52:38;;;;;;;667.85;538.67;;;20.00;99.90;;;;;;4957614;29;20047;-88
2023/09/10 07:55:05;;;;;;;680.53;541.45;;;20.20;99.90;;;;;;4940135;29;20055;-89
2023/09/10 07:57:30;;;;;;;915.47;806.75;;;20.40;99.90;;;;;;4957459;29;20464;-88
2023/09/10 07:59:56;;;;;;;708.30;553.47;;;20.50;99.90;;;;;;4940745;29;20059;-88
2023/09/10 08:02:26;;;;;;;610.50;541.30;;;20.60;99.90;;;;;;4940767;29;20062;-91
2023/09/10 08:04:52;;;;;;;687.75;551.75;;;20.80;99.90;;;;;;4957899;29;20094;-89
2023/09/10 08:07:18;;;;;;;912.65;814.95;;;20.90;99.90;;;;;;4958856;29;20057;-84
2023/09/10 08:09:44;;;;;;;922.53;823.53;;;21.00;99.90;;;;;;4966651;29;20039;-85
2023/09/10 08:12:10;;;;;;;716.15;568.00;;;21.20;99.90;;;;;;4952659;29;20514;-85
2023/09/10 08:14:38;;;;;;;935.90;835.65;;;21.30;99.90;;;;;;4941936;29;20043;-87
2023/09/10 08:17:04;;;;;;;685.92;570.53;;;21.50;99.90;;;;;;4947513;28;20066;-88
2023/09/10 08:19:30;;;;;;;928.03;837.47;;;21.60;99.90;;;;;;4957473;28;20047;-87
2023/09/10 08:21:56;;;;;;;735.15;572.38;;;21.80;99.90;;;;;;4955929;29;20114;-89
2023/09/10 08:24:25;;;;;;;737.30;574.88;;;21.90;99.90;;;;;;4955951;29;20051;-84
2023/09/10 08:26:51;;;;;;;957.78;856.88;;;22.00;99.90;;;;;;4956799;29;20066;-84
2023/09/10 08:29:17;;;;;;;717.50;577.78;;;22.20;99.90;;;;;;4955857;28;20042;-84
2023/09/10 08:31:43;;;;;;;715.83;574.85;;;22.40;99.90;;;;;;4937330;29;20055;-83
2023/09/10 08:34:09;;;;;;;982.80;878.55;;;22.50;99.90;;;;;;4946499;29;20062;-84
2023/09/10 08:36:35;;;;;;;1002.80;876.65;;;22.60;99.90;;;;;;4956344;28;20035;-83
2023/09/10 08:39:00;;;;;;;1075.63;608.90;;;22.80;99.90;;;;;;4954682;29;20490;-84
2023/09/10 08:41:37;;;;;;;1237.53;871.67;;;22.90;99.90;;;;;;4956340;28;20083;-84
2023/09/10 08:44:04;;;;;;;1062.60;612.70;;;23.10;99.90;;;;;;4955740;28;20071;-84
2023/09/10 08:46:32;;;;;;;1162.65;886.20;;;23.20;99.90;;;;;;4955624;28;20082;-84
2023/09/10 08:48:58;;;;;;;1235.30;895.28;;;23.40;99.90;;;;;;4955259;29;20154;-85
2023/09/10 08:51:25;;;;;;;1006.42;621.13;;;23.50;99.90;;;;;;4955940;28;20043;-83
2023/09/10 08:53:57;;;;;;;911.50;623.20;;;23.60;99.90;;;;;;4956444;28;20083;-84
2023/09/10 08:56:23;;;;;;;940.08;619.92;;;23.80;99.90;;;;;;4954668;29;20090;-84
2023/09/10 08:58:50;;;;;;;1155.15;900.50;;;23.90;99.90;;;;;;4955683;28;20055;-84
2023/09/10 09:01:18;;;;;;;944.47;642.63;;;24.00;99.90;;;;;;4954511;28;20396;-83
2023/09/10 09:03:46;;;;;;;1014.65;902.95;;;24.20;99.90;;;;;;4954660;29;20392;-84
2023/09/10 09:06:12;;;;;;;836.40;648.85;;;24.30;99.90;;;;;;4955672;28;20052;-84
2023/09/10 09:08:40;;;;;;;1046.32;917.65;;;24.40;99.90;;;;;;4955955;28;20039;-86
2023/09/10 09:11:08;;;;;;;850.60;648.63;;;24.50;99.90;;;;;;4955167;28;20093;-86
2023/09/10 09:13:38;;;;;;;808.67;654.33;;;24.70;99.90;;;;;;4955143;28;20110;-85
2023/09/10 09:16:05;;;;;;;782.70;652.25;;;24.80;99.90;;;;;;4954959;28;20061;-88
2023/09/10 09:18:35;;;;;;;768.97;652.72;;;25.00;99.90;;;;;;4938325;29;20182;-84
2023/09/10 09:21:07;;;;;;;751.50;651.47;;;25.10;99.90;;;;;;4955836;29;20083;-85
2023/09/10 09:23:37;;;;;;;1038.85;935.78;;;25.20;99.90;;;;;;4939010;29;20381;-85
2023/09/10 09:26:04;;;;;;;733.38;648.00;;;25.40;99.90;;;;;;4939059;29;20065;-84
2023/09/10 09:28:31;;;;;;;1014.35;918.28;;;25.50;99.90;;;;;;4921323;29;20051;-84
2023/09/10 09:30:57;;;;;;;713.85;639.28;;;25.60;99.90;;;;;;4938637;29;20043;-84
2023/09/10 09:33:23;;;;;;;1004.33;920.03;;;25.70;99.90;;;;;;4938107;29;20059;-84
2023/09/10 09:35:48;;;;;;;697.75;636.38;;;25.70;99.90;;;;;;4922532;29;20051;-83
2023/09/10 09:38:15;;;;;;;979.30;905.65;;;25.80;99.90;;;;;;4922615;29;20050;-83
2023/09/10 09:40:42;;;;;;;952.42;884.92;;;25.90;99.90;;;;;;4938439;29;20043;-84
2023/09/10 09:43:08;;;;;;;944.53;878.25;;;26.10;99.90;;;;;;4937294;29;20047;-84
2023/09/10 09:45:35;;;;;;;923.88;860.50;;;26.20;99.90;;;;;;4955286;29;20463;-85
2023/09/10 09:48:05;;;;;;;614.00;573.92;;;26.30;99.90;;;;;;4938195;29;20102;-85
2023/09/10 09:50:31;;;;;;;947.42;881.85;;;26.40;99.90;;;;;;4938061;29;20129;-85
2023/09/10 09:52:56;;;;;;;951.35;885.60;;;26.60;99.90;;;;;;4938280;29;20138;-84
2023/09/10 09:55:23;;;;;;;975.92;905.53;;;26.70;99.90;;;;;;4938214;29;20051;-84
2023/09/10 10:09:00;;;;;;;1037.13;947.97;;;27.30;99.90;;;;;;5346240;23;20089;-92
2023/09/10 10:11:41;;;;;;;1059.68;958.50;;;27.50;99.90;;;;;;4896458;29;20140;-89
2023/09/10 10:14:18;;;;;;;745.47;671.05;;;27.40;99.90;;;;;;4890251;29;20056;-88
2023/09/10 10:43:30;;;;;;;826.08;733.90;;;28.40;99.90;;;;;;5645237;23;20051;-87
2023/09/10 10:46:00;;;;;;;1108.03;990.35;;;28.60;99.90;;;;;;4989813;28;20046;-87
2023/09/10 10:48:41;;;;;;;867.45;736.42;;;28.80;99.90;;;;;;5005456;28;20042;-87
2023/09/10 10:51:15;;;;;;;1085.10;745.70;;;29.00;99.90;;;;;;4989469;28;20042;-88
2023/09/10 10:53:46;;;;;;;1133.63;749.75;;;28.90;99.90;;;;;;4991557;28;20050;-88
2023/09/10 10:56:15;;;;;;;1282.28;998.30;;;28.90;99.90;;;;;;4971118;28;20047;-87
2023/09/10 10:58:49;;;;;;;1437.22;999.90;;;29.00;99.90;;;;;;4966577;28;20043;-88
2023/09/10 11:35:15;;;;;;;816.53;732.65;;;30.00;99.90;;;;;;4926190;23;20472;-85
2023/09/10 11:42:04;;;;;;;1099.93;996.95;;;30.20;99.90;;;;;;5171526;23;20147;-92
2023/09/10 11:45:13;;;;;;;798.13;724.40;;;30.10;99.90;;;;;;4930879;23;20061;-90
2023/09/10 14:16:46;;;;;;;673.95;630.55;;;31.10;99.50;;;;;;4893099;29;20142;-91
2023/09/10 14:19:12;;;;;;;972.50;905.30;;;31.10;99.90;;;;;;4864883;29;20667;-88
2023/09/10 14:21:53;;;;;;;976.40;909.08;;;31.00;99.50;;;;;;4895966;29;20154;-92
2023/09/10 14:28:06;;;;;;;;;;;31.00;99.20;;;;;;4860151;29;20532;-89
2023/09/10 14:57:51;;;;;;;1137.88;999.90;;;30.50;99.40;;;;;;4917504;29;20456;-90
2023/09/10 15:04:08;;;;;;;1090.65;745.38;;;30.40;99.90;;;;;;4809356;23;20048;-88
2023/09/10 15:07:04;;;;;;;1017.83;749.60;;;30.30;99.80;;;;;;4886295;29;20115;-90
2023/09/10 15:09:44;;;;;;;1059.10;746.03;;;30.20;99.90;;;;;;4885976;29;20056;-89
2023/09/10 15:12:19;;;;;;;1267.82;999.90;;;30.20;99.90;;;;;;4902067;29;20123;-91
2023/09/10 15:14:53;;;;;;;1074.30;746.17;;;30.00;99.90;;;;;;4886197;29;20051;-89
2023/09/10 15:26:13;;;;;;;997.75;743.13;;;29.70;99.90;;;;;;4921081;29;20091;-91
2023/09/10 15:29:50;;;;;;;872.80;738.33;;;29.50;99.90;;;;;;4827320;29;20099;-92
2023/09/10 15:36:58;;;;;;;1123.55;999.90;;;29.40;99.90;;;;;;4788982;30;20046;-91
2023/09/10 15:49:18;;;;;;;797.35;718.30;;;29.00;99.90;;;;;;5249209;23;20067;-92
2023/09/10 15:52:01;;;;;;;798.20;720.88;;;28.90;99.90;;;;;;5072269;23;20050;-92
2023/09/10 16:22:25;;;;;;;996.97;924.55;;;27.60;99.90;;;;;;4926950;23;20056;-89
2023/09/10 17:14:45;;;;;;;746.35;668.35;;;26.00;99.90;;;;;;5988422;23;20027;-89
2023/09/10 17:21:51;;;;;;;1073.38;957.80;;;25.90;99.90;;;;;;4993473;23;20057;-93
2023/09/10 17:46:18;;;;;;;1026.32;668.40;;;25.20;99.90;;;;;;5100557;23;20080;-88
2023/09/10 17:53:06;;;;;;;1282.30;938.65;;;24.90;99.90;;;;;;4913277;29;20060;-92
2023/09/10 17:55:31;;;;;;;1121.03;670.15;;;24.80;99.90;;;;;;4927298;29;20524;-89
2023/09/10 17:58:00;;;;;;;1083.90;670.38;;;24.70;99.90;;;;;;4915450;29;20051;-89
2023/09/10 18:00:26;;;;;;;1046.00;666.70;;;24.60;99.90;;;;;;4915360;29;20048;-88
2023/09/10 18:02:52;;;;;;;1245.75;941.53;;;24.60;99.90;;;;;;4916689;29;20153;-88
2023/09/10 18:05:18;;;;;;;1077.35;670.08;;;24.50;99.90;;;;;;4914937;29;20051;-88
2023/09/10 18:07:43;;;;;;;1292.20;924.30;;;24.40;99.90;;;;;;4899437;29;20524;-88
2023/09/10 18:10:10;;;;;;;1069.95;665.35;;;24.30;99.90;;;;;;4896546;29;20395;-88
2023/09/10 18:12:36;;;;;;;1220.13;936.40;;;24.30;99.90;;;;;;4897063;29;20142;-89
2023/09/10 18:15:02;;;;;;;1028.20;664.55;;;24.10;99.90;;;;;;4895834;29;20056;-88
2023/09/10 18:17:35;;;;;;;1039.22;669.13;;;24.10;99.90;;;;;;4881219;29;20053;-92
2023/09/10 18:23:10;;;;;;;1006.47;646.63;;;23.90;99.90;;;;;;4967298;23;20112;-89
2023/09/10 19:21:13;;;;;;;;;;;;;;;;;;;;;
2023/09/10 20:10:38;;;;;;;;;;;;;;;;;;;;;
2023/09/10 20:14:03;;;;;;;1320.45;842.60;;;21.60;99.90;;;;;;6308958;22;20026;-89
2023/09/10 20:20:44;;;;;;;1121.13;596.75;;;21.40;99.90;;;;;;6162381;23;20024;-90
2023/09/10 20:31:16;;;;;;;;;;;;;;;;;;;;;
2023/09/10 20:44:25;;;;;;;1207.03;595.75;;;21.20;99.90;;;;;;6321856;21;1311025;-89
2023/09/10 20:46:51;;;;;;;1304.88;823.15;;;21.00;99.90;;;;;;6295944;22;20019;-84
2023/09/10 20:49:16;;;;;;;1131.82;856.78;;;21.00;99.90;;;;;;6347591;22;20093;-86
2023/09/10 20:51:42;;;;;;;901.10;585.80;;;21.00;99.90;;;;;;6319874;22;20022;-85
2023/09/10 20:54:08;;;;;;;916.55;578.65;;;21.00;99.90;;;;;;6346268;22;20015;-85
2023/09/10 20:56:33;;;;;;;904.97;580.80;;;20.90;99.90;;;;;;6345645;22;20015;-85
2023/09/10 20:58:59;;;;;;;1081.45;836.22;;;20.90;99.90;;;;;;6346268;22;20101;-88
2023/09/10 21:01:25;;;;;;;1073.07;837.90;;;20.90;99.90;;;;;;6347832;22;20011;-86
2023/09/10 21:03:51;;;;;;;891.88;576.20;;;20.80;99.90;;;;;;6345678;22;20427;-86
2023/09/10 21:06:16;;;;;;;888.70;581.00;;;20.80;99.90;;;;;;6345740;22;20014;-86
2023/09/10 21:08:42;;;;;;;1062.25;835.55;;;20.80;99.90;;;;;;6345414;22;20041;-86
2023/09/10 21:11:08;;;;;;;865.60;573.50;;;20.80;99.90;;;;;;6346861;22;20015;-86
2023/09/10 21:13:34;;;;;;;865.38;574.15;;;20.70;99.90;;;;;;6346796;22;20018;-86
2023/09/10 21:15:59;;;;;;;1043.68;835.20;;;20.70;99.90;;;;;;6345549;22;20014;-86
2023/09/10 21:18:26;;;;;;;860.33;570.85;;;20.60;99.90;;;;;;6345510;22;20411;-85
2023/09/10 21:20:52;;;;;;;1026.22;832.03;;;20.60;99.90;;;;;;6319549;22;20019;-85
2023/09/10 21:23:17;;;;;;;848.60;575.72;;;20.60;99.90;;;;;;6345223;22;20066;-86
2023/09/10 21:25:43;;;;;;;852.20;569.08;;;20.50;99.90;;;;;;6345400;22;20022;-86
2023/09/10 21:28:09;;;;;;;833.50;568.78;;;20.50;99.90;;;;;;6319298;22;20010;-87
2023/09/10 21:30:35;;;;;;;812.80;568.40;;;20.50;99.90;;;;;;6345514;22;20026;-87
2023/09/10 21:33:00;;;;;;;967.97;828.95;;;20.40;99.90;;;;;;6345295;22;20023;-87
2023/09/10 21:35:26;;;;;;;958.20;831.10;;;20.40;99.90;;;;;;6318955;22;20017;-88
2023/09/10 21:37:52;;;;;;;783.05;564.97;;;20.40;99.90;;;;;;6345853;22;20023;-87